createdAt,value
2022-09-21T00:12:43.861Z,9.9
2022-09-21T00:27:14.275Z,9.6
2022-09-21T00:41:41.297Z,9.5
2022-09-21T00:56:11.279Z,9.2
2022-09-21T01:10:41.687Z,8.9
2022-09-21T01:25:09.980Z,8.7
2022-09-21T01:39:40.462Z,9.1
2022-09-21T01:54:16.832Z,9
2022-09-21T02:08:48.845Z,8.8
2022-09-21T02:23:20.886Z,8.4
2022-09-21T02:37:57.207Z,8.3
2022-09-21T02:52:19.658Z,8.6
2022-09-21T03:06:46.416Z,8
2022-09-21T03:21:15.341Z,8.1
2022-09-21T03:35:44.695Z,7.9
2022-09-21T03:50:15.549Z,8
2022-09-21T04:04:45.754Z,7.8
2022-09-21T04:19:14.809Z,7.2
2022-09-21T04:33:45.727Z,7.2
2022-09-21T04:48:17.251Z,7.6
2022-09-21T05:02:46.660Z,7
2022-09-21T05:17:16.920Z,7.1
2022-09-21T05:31:44.463Z,7.1
2022-09-21T05:46:15.515Z,7.3
2022-09-21T06:00:47.155Z,7.6
2022-09-21T06:15:17.296Z,7.4
2022-09-21T06:29:47.444Z,7.9
2022-09-21T06:44:18.191Z,8.1
2022-09-21T06:58:46.634Z,8.3
2022-09-21T07:13:18.103Z,8.8
2022-09-21T07:27:50.278Z,9.4
2022-09-21T07:42:27.950Z,9.6
2022-09-21T07:57:01.791Z,10.1
2022-09-21T08:11:31.670Z,11.3
2022-09-21T08:26:26.240Z,15
2022-09-21T08:41:05.337Z,15.9
2022-09-21T08:55:36.594Z,17.1
2022-09-21T09:10:03.122Z,16.2
2022-09-21T09:24:38.569Z,19
2022-09-21T09:39:18.307Z,16.7
2022-09-21T09:53:47.466Z,17.6
2022-09-21T10:08:10.926Z,17
2022-09-21T10:22:43.193Z,17.8
2022-09-21T10:37:15.152Z,18
2022-09-21T10:51:46.377Z,18.1
2022-09-21T11:06:18.465Z,18.9
2022-09-21T11:20:47.979Z,19
2022-09-21T11:35:25.526Z,19
2022-09-21T11:50:19.401Z,19
2022-09-21T12:04:49.073Z,19
2022-09-21T12:19:22.541Z,19
2022-09-21T12:33:49.333Z,19.3
2022-09-21T12:48:18.299Z,19.2
2022-09-21T13:02:49.103Z,19.1
2022-09-21T13:17:20.032Z,19.2
2022-09-21T13:31:50.000Z,19.2
2022-09-21T13:46:26.344Z,18.9
2022-09-21T14:00:57.281Z,18.7
2022-09-21T14:15:29.890Z,18.7
2022-09-21T14:30:00.754Z,18.1
2022-09-21T14:44:30.066Z,17.9
2022-09-21T14:58:58.295Z,17.8
2022-09-21T15:13:27.610Z,17.5
2022-09-21T15:27:57.194Z,17.1
2022-09-21T15:42:26.483Z,16.8
2022-09-21T15:56:57.078Z,16.6
2022-09-21T16:11:25.244Z,17
2022-09-21T16:25:59.348Z,17.6
2022-09-21T16:40:29.175Z,17.9
2022-09-21T16:55:05.699Z,17.6
2022-09-21T17:09:38.600Z,17.3
2022-09-21T17:24:02.443Z,16.9
2022-09-21T17:38:30.130Z,15.8
2022-09-21T17:52:59.104Z,15.4
2022-09-21T18:07:27.111Z,15
2022-09-21T18:22:00.963Z,14.7
2022-09-21T18:36:32.411Z,14.2
2022-09-21T18:51:00.114Z,13.8
2022-09-21T19:05:27.183Z,13.5
2022-09-21T19:19:57.703Z,13.3
2022-09-21T19:34:26.923Z,13
2022-09-21T19:48:55.867Z,12.6
2022-09-21T20:03:30.607Z,12.6
2022-09-21T20:17:58.047Z,12.2
2022-09-21T20:32:27.775Z,12.2
2022-09-21T20:46:58.108Z,12.2
2022-09-21T21:01:27.368Z,11.4
2022-09-21T21:15:57.188Z,11.3
2022-09-21T21:30:27.027Z,11.2
2022-09-21T21:44:57.702Z,10.6
2022-09-21T21:59:33.535Z,10.5
2022-09-21T22:14:04.592Z,10.3
2022-09-21T22:28:30.227Z,10.6
2022-09-21T22:43:05.469Z,10.2
2022-09-21T22:57:39.309Z,10.1
2022-09-21T23:12:04.843Z,9.8
2022-09-21T23:26:34.577Z,9.6
2022-09-21T23:41:05.448Z,9.6
2022-09-21T23:55:34.370Z,9.4
